sensor_id;sensor_type;location;lat;lon;timestamp;temperature;humidity
40556;DHT22;26250;45.422;11.100;2024-03-25T00:01:34;7.40;99.90
40556;DHT22;26250;45.422;11.100;2024-03-25T00:04:00;7.50;99.90
40556;DHT22;26250;45.422;11.100;2024-03-25T00:06:26;7.50;99.90
40556;DHT22;26250;45.422;11.100;2024-03-25T00:08:52;7.60;99.90
40556;DHT22;26250;45.422;11.100;2024-03-25T00:11:19;7.50;99.90
40556;DHT22;26250;45.422;11.100;2024-03-25T00:13:45;7.60;99.90
40556;DHT22;26250;45.422;11.100;2024-03-25T00:16:11;7.60;99.90
40556;DHT22;26250;45.422;11.100;2024-03-25T00:18:37;7.60;99.90
40556;DHT22;26250;45.422;11.100;2024-03-25T00:21:03;7.60;99.90
40556;DHT22;26250;45.422;11.100;2024-03-25T00:23:30;7.60;99.90
40556;DHT22;26250;45.422;11.100;2024-03-25T00:25:56;7.50;99.90
40556;DHT22;26250;45.422;11.100;2024-03-25T00:28:22;7.40;99.90
40556;DHT22;26250;45.422;11.100;2024-03-25T00:30:48;7.30;99.90
40556;DHT22;26250;45.422;11.100;2024-03-25T00:33:15;7.40;99.90
40556;DHT22;26250;45.422;11.100;2024-03-25T00:35:43;7.40;99.90
40556;DHT22;26250;45.422;11.100;2024-03-25T00:38:12;7.40;99.20
40556;DHT22;26250;45.422;11.100;2024-03-25T00:40:38;7.60;99.90
40556;DHT22;26250;45.422;11.100;2024-03-25T00:43:04;7.60;99.40
40556;DHT22;26250;45.422;11.100;2024-03-25T00:45:30;7.60;98.70
40556;DHT22;26250;45.422;11.100;2024-03-25T00:47:57;7.60;98.30
40556;DHT22;26250;45.422;11.100;2024-03-25T00:50:23;7.60;98.40
40556;DHT22;26250;45.422;11.100;2024-03-25T00:52:49;7.60;99.90
40556;DHT22;26250;45.422;11.100;2024-03-25T00:55:15;7.40;99.90
40556;DHT22;26250;45.422;11.100;2024-03-25T00:57:41;7.20;99.90
40556;DHT22;26250;45.422;11.100;2024-03-25T01:00:08;7.20;99.90
40556;DHT22;26250;45.422;11.100;2024-03-25T01:02:34;7.30;99.90
40556;DHT22;26250;45.422;11.100;2024-03-25T01:05:01;7.30;99.90
40556;DHT22;26250;45.422;11.100;2024-03-25T01:07:27;7.30;99.90
40556;DHT22;26250;45.422;11.100;2024-03-25T01:09:53;7.20;99.90
40556;DHT22;26250;45.422;11.100;2024-03-25T01:12:19;7.10;99.90
40556;DHT22;26250;45.422;11.100;2024-03-25T01:14:45;7.00;99.90
40556;DHT22;26250;45.422;11.100;2024-03-25T01:17:11;6.80;99.90
40556;DHT22;26250;45.422;11.100;2024-03-25T01:19:37;6.80;99.90
40556;DHT22;26250;45.422;11.100;2024-03-25T01:22:03;6.80;99.90
40556;DHT22;26250;45.422;11.100;2024-03-25T01:24:30;6.90;99.90
40556;DHT22;26250;45.422;11.100;2024-03-25T01:26:56;7.00;99.90
40556;DHT22;26250;45.422;11.100;2024-03-25T01:29:23;7.10;99.90
40556;DHT22;26250;45.422;11.100;2024-03-25T01:31:49;7.00;99.90
40556;DHT22;26250;45.422;11.100;2024-03-25T01:34:15;7.10;99.90
40556;DHT22;26250;45.422;11.100;2024-03-25T01:36:41;7.10;99.90
40556;DHT22;26250;45.422;11.100;2024-03-25T01:39:07;7.10;99.90
40556;DHT22;26250;45.422;11.100;2024-03-25T01:41:34;7.10;99.90
40556;DHT22;26250;45.422;11.100;2024-03-25T01:43:59;7.10;99.90
40556;DHT22;26250;45.422;11.100;2024-03-25T01:46:25;6.90;99.90
40556;DHT22;26250;45.422;11.100;2024-03-25T01:48:52;6.90;99.90
40556;DHT22;26250;45.422;11.100;2024-03-25T01:51:21;6.90;99.90
40556;DHT22;26250;45.422;11.100;2024-03-25T01:53:48;6.80;99.90
40556;DHT22;26250;45.422;11.100;2024-03-25T01:56:16;6.80;99.90
40556;DHT22;26250;45.422;11.100;2024-03-25T01:58:43;6.80;99.90
40556;DHT22;26250;45.422;11.100;2024-03-25T02:01:09;6.80;99.90
40556;DHT22;26250;45.422;11.100;2024-03-25T02:03:41;6.80;99.90
40556;DHT22;26250;45.422;11.100;2024-03-25T02:06:13;6.70;99.90
40556;DHT22;26250;45.422;11.100;2024-03-25T02:08:42;6.70;99.90
40556;DHT22;26250;45.422;11.100;2024-03-25T02:11:09;6.70;99.90
40556;DHT22;26250;45.422;11.100;2024-03-25T02:13:37;6.60;99.90
40556;DHT22;26250;45.422;11.100;2024-03-25T02:16:03;6.60;99.90
40556;DHT22;26250;45.422;11.100;2024-03-25T02:18:30;6.60;99.90
40556;DHT22;26250;45.422;11.100;2024-03-25T02:20:59;6.70;99.90
40556;DHT22;26250;45.422;11.100;2024-03-25T02:23:28;6.80;99.90
40556;DHT22;26250;45.422;11.100;2024-03-25T02:25:55;7.00;99.90
40556;DHT22;26250;45.422;11.100;2024-03-25T02:28:21;7.10;99.90
40556;DHT22;26250;45.422;11.100;2024-03-25T02:30:47;7.20;99.90
40556;DHT22;26250;45.422;11.100;2024-03-25T02:33:14;7.20;99.90
40556;DHT22;26250;45.422;11.100;2024-03-25T02:35:41;7.10;99.90
40556;DHT22;26250;45.422;11.100;2024-03-25T02:38:08;7.30;99.90
40556;DHT22;26250;45.422;11.100;2024-03-25T02:40:35;7.40;99.90
40556;DHT22;26250;45.422;11.100;2024-03-25T02:43:01;7.20;98.00
40556;DHT22;26250;45.422;11.100;2024-03-25T02:45:28;7.10;97.00
40556;DHT22;26250;45.422;11.100;2024-03-25T02:47:55;7.00;96.80
40556;DHT22;26250;45.422;11.100;2024-03-25T02:50:21;7.00;99.90
40556;DHT22;26250;45.422;11.100;2024-03-25T02:52:47;7.20;99.90
40556;DHT22;26250;45.422;11.100;2024-03-25T02:55:13;7.40;99.90
40556;DHT22;26250;45.422;11.100;2024-03-25T02:57:39;8.00;99.90
40556;DHT22;26250;45.422;11.100;2024-03-25T03:00:06;8.00;99.90
40556;DHT22;26250;45.422;11.100;2024-03-25T03:02:34;8.00;99.90
40556;DHT22;26250;45.422;11.100;2024-03-25T03:05:00;7.70;99.90
40556;DHT22;26250;45.422;11.100;2024-03-25T03:07:26;7.40;95.50
40556;DHT22;26250;45.422;11.100;2024-03-25T03:09:52;7.20;94.60
40556;DHT22;26250;45.422;11.100;2024-03-25T03:12:18;7.00;97.30
40556;DHT22;26250;45.422;11.100;2024-03-25T03:14:45;6.60;99.60
40556;DHT22;26250;45.422;11.100;2024-03-25T03:17:11;6.50;99.90
40556;DHT22;26250;45.422;11.100;2024-03-25T03:19:37;6.40;99.90
40556;DHT22;26250;45.422;11.100;2024-03-25T03:22:04;6.40;99.90
40556;DHT22;26250;45.422;11.100;2024-03-25T03:24:30;6.40;99.90
40556;DHT22;26250;45.422;11.100;2024-03-25T03:26:56;6.40;99.90
40556;DHT22;26250;45.422;11.100;2024-03-25T03:29:22;6.40;99.40
40556;DHT22;26250;45.422;11.100;2024-03-25T03:31:48;6.40;99.80
40556;DHT22;26250;45.422;11.100;2024-03-25T03:34:14;6.50;99.00
40556;DHT22;26250;45.422;11.100;2024-03-25T03:36:41;6.50;98.60
40556;DHT22;26250;45.422;11.100;2024-03-25T03:39:07;6.30;99.90
40556;DHT22;26250;45.422;11.100;2024-03-25T03:41:35;6.40;98.50
40556;DHT22;26250;45.422;11.100;2024-03-25T03:44:02;6.30;99.10
40556;DHT22;26250;45.422;11.100;2024-03-25T03:46:29;6.50;99.20
40556;DHT22;26250;45.422;11.100;2024-03-25T03:48:55;6.40;99.90
40556;DHT22;26250;45.422;11.100;2024-03-25T03:51:21;6.20;99.90
40556;DHT22;26250;45.422;11.100;2024-03-25T03:53:47;6.00;99.90
40556;DHT22;26250;45.422;11.100;2024-03-25T03:56:13;6.10;99.90
40556;DHT22;26250;45.422;11.100;2024-03-25T03:58:39;6.20;99.90
40556;DHT22;26250;45.422;11.100;2024-03-25T04:01:14;6.30;99.90
40556;DHT22;26250;45.422;11.100;2024-03-25T04:03:40;6.20;99.90
40556;DHT22;26250;45.422;11.100;2024-03-25T04:06:13;6.10;99.90
40556;DHT22;26250;45.422;11.100;2024-03-25T04:08:40;6.00;99.90
40556;DHT22;26250;45.422;11.100;2024-03-25T04:11:07;6.00;99.90
40556;DHT22;26250;45.422;11.100;2024-03-25T04:13:34;6.00;99.90
40556;DHT22;26250;45.422;11.100;2024-03-25T04:16:01;6.20;99.90
40556;DHT22;26250;45.422;11.100;2024-03-25T04:18:29;6.20;99.90
40556;DHT22;26250;45.422;11.100;2024-03-25T04:20:55;5.90;99.90
40556;DHT22;26250;45.422;11.100;2024-03-25T04:23:23;5.70;99.90
40556;DHT22;26250;45.422;11.100;2024-03-25T04:25:50;5.40;99.90
40556;DHT22;26250;45.422;11.100;2024-03-25T04:28:15;5.40;99.90
40556;DHT22;26250;45.422;11.100;2024-03-25T04:30:42;5.40;99.90
40556;DHT22;26250;45.422;11.100;2024-03-25T04:33:08;5.50;99.90
40556;DHT22;26250;45.422;11.100;2024-03-25T04:35:34;5.40;99.90
40556;DHT22;26250;45.422;11.100;2024-03-25T04:38:00;5.40;99.90
40556;DHT22;26250;45.422;11.100;2024-03-25T04:40:27;5.50;99.90
40556;DHT22;26250;45.422;11.100;2024-03-25T04:42:53;5.60;99.90
40556;DHT22;26250;45.422;11.100;2024-03-25T04:45:19;5.60;99.90
40556;DHT22;26250;45.422;11.100;2024-03-25T04:47:45;5.70;99.90
40556;DHT22;26250;45.422;11.100;2024-03-25T04:50:11;5.60;99.90
40556;DHT22;26250;45.422;11.100;2024-03-25T04:52:37;5.30;99.90
40556;DHT22;26250;45.422;11.100;2024-03-25T04:55:05;5.30;99.90
40556;DHT22;26250;45.422;11.100;2024-03-25T04:57:31;5.20;99.90
40556;DHT22;26250;45.422;11.100;2024-03-25T04:59:58;5.10;99.90
40556;DHT22;26250;45.422;11.100;2024-03-25T05:02:24;5.10;99.90
40556;DHT22;26250;45.422;11.100;2024-03-25T05:04:50;5.30;99.90
40556;DHT22;26250;45.422;11.100;2024-03-25T05:07:18;5.40;99.90
40556;DHT22;26250;45.422;11.100;2024-03-25T05:09:44;5.70;99.90
40556;DHT22;26250;45.422;11.100;2024-03-25T05:12:10;5.60;99.90
40556;DHT22;26250;45.422;11.100;2024-03-25T05:14:36;5.70;99.90
40556;DHT22;26250;45.422;11.100;2024-03-25T05:17:02;5.70;99.90
40556;DHT22;26250;45.422;11.100;2024-03-25T05:19:30;5.80;99.90
40556;DHT22;26250;45.422;11.100;2024-03-25T05:21:56;5.80;99.90
40556;DHT22;26250;45.422;11.100;2024-03-25T05:24:22;5.90;99.90
40556;DHT22;26250;45.422;11.100;2024-03-25T05:26:48;5.60;99.90
40556;DHT22;26250;45.422;11.100;2024-03-25T05:29:14;5.40;99.90
40556;DHT22;26250;45.422;11.100;2024-03-25T05:31:56;5.20;99.90
40556;DHT22;26250;45.422;11.100;2024-03-25T05:34:26;5.20;99.90
40556;DHT22;26250;45.422;11.100;2024-03-25T05:36:52;5.20;99.90
40556;DHT22;26250;45.422;11.100;2024-03-25T05:39:18;5.30;99.90
40556;DHT22;26250;45.422;11.100;2024-03-25T05:41:46;5.50;99.90
40556;DHT22;26250;45.422;11.100;2024-03-25T05:44:13;5.70;99.90
40556;DHT22;26250;45.422;11.100;2024-03-25T05:46:39;5.80;99.90
40556;DHT22;26250;45.422;11.100;2024-03-25T05:49:06;5.90;99.90
40556;DHT22;26250;45.422;11.100;2024-03-25T05:51:32;5.90;99.90
40556;DHT22;26250;45.422;11.100;2024-03-25T05:53:59;5.80;99.90
40556;DHT22;26250;45.422;11.100;2024-03-25T05:56:26;5.80;99.90
40556;DHT22;26250;45.422;11.100;2024-03-25T05:58:59;5.80;99.90
40556;DHT22;26250;45.422;11.100;2024-03-25T06:01:26;5.90;99.90
40556;DHT22;26250;45.422;11.100;2024-03-25T06:03:53;5.60;99.90
40556;DHT22;26250;45.422;11.100;2024-03-25T06:06:19;5.70;99.90
40556;DHT22;26250;45.422;11.100;2024-03-25T06:08:46;5.70;99.90
40556;DHT22;26250;45.422;11.100;2024-03-25T06:11:12;5.90;99.90
40556;DHT22;26250;45.422;11.100;2024-03-25T06:13:38;6.20;99.90
40556;DHT22;26250;45.422;11.100;2024-03-25T06:16:05;6.50;99.90
40556;DHT22;26250;45.422;11.100;2024-03-25T06:18:31;6.80;99.90
40556;DHT22;26250;45.422;11.100;2024-03-25T06:20:57;7.70;99.90
40556;DHT22;26250;45.422;11.100;2024-03-25T06:23:28;8.30;99.90
40556;DHT22;26250;45.422;11.100;2024-03-25T06:25:55;9.10;98.70
40556;DHT22;26250;45.422;11.100;2024-03-25T06:28:22;10.00;97.20
40556;DHT22;26250;45.422;11.100;2024-03-25T06:30:49;10.90;92.30
40556;DHT22;26250;45.422;11.100;2024-03-25T06:33:35;12.00;87.30
40556;DHT22;26250;45.422;11.100;2024-03-25T06:36:20;13.00;81.60
40556;DHT22;26250;45.422;11.100;2024-03-25T06:38:48;13.40;80.00
40556;DHT22;26250;45.422;11.100;2024-03-25T06:41:14;13.50;78.90
40556;DHT22;26250;45.422;11.100;2024-03-25T06:43:40;13.50;77.30
40556;DHT22;26250;45.422;11.100;2024-03-25T06:46:07;13.60;76.80
40556;DHT22;26250;45.422;11.100;2024-03-25T06:48:34;13.90;75.80
40556;DHT22;26250;45.422;11.100;2024-03-25T06:51:01;13.50;75.50
40556;DHT22;26250;45.422;11.100;2024-03-25T06:53:29;13.80;75.40
40556;DHT22;26250;45.422;11.100;2024-03-25T06:55:56;14.00;75.00
40556;DHT22;26250;45.422;11.100;2024-03-25T06:58:24;14.40;73.30
40556;DHT22;26250;45.422;11.100;2024-03-25T07:00:51;14.80;72.50
40556;DHT22;26250;45.422;11.100;2024-03-25T07:03:19;15.60;69.70
40556;DHT22;26250;45.422;11.100;2024-03-25T07:05:46;15.90;68.60
40556;DHT22;26250;45.422;11.100;2024-03-25T07:08:13;14.90;69.00
40556;DHT22;26250;45.422;11.100;2024-03-25T07:10:41;14.80;71.90
40556;DHT22;26250;45.422;11.100;2024-03-25T07:13:08;14.80;71.10
40556;DHT22;26250;45.422;11.100;2024-03-25T07:15:35;15.10;69.50
40556;DHT22;26250;45.422;11.100;2024-03-25T07:18:02;15.00;69.50
40556;DHT22;26250;45.422;11.100;2024-03-25T07:20:30;15.70;67.20
40556;DHT22;26250;45.422;11.100;2024-03-25T07:22:57;16.00;74.20
40556;DHT22;26250;45.422;11.100;2024-03-25T07:25:23;15.90;92.90
40556;DHT22;26250;45.422;11.100;2024-03-25T07:27:50;15.40;99.90
40556;DHT22;26250;45.422;11.100;2024-03-25T07:30:17;15.30;99.90
40556;DHT22;26250;45.422;11.100;2024-03-25T07:32:43;14.50;99.90
40556;DHT22;26250;45.422;11.100;2024-03-25T07:35:11;14.40;99.90
40556;DHT22;26250;45.422;11.100;2024-03-25T07:37:37;14.00;99.90
40556;DHT22;26250;45.422;11.100;2024-03-25T07:40:06;14.40;99.90
40556;DHT22;26250;45.422;11.100;2024-03-25T07:42:32;14.60;99.90
40556;DHT22;26250;45.422;11.100;2024-03-25T07:44:58;14.70;99.90
40556;DHT22;26250;45.422;11.100;2024-03-25T07:47:24;13.80;99.90
40556;DHT22;26250;45.422;11.100;2024-03-25T07:49:50;13.40;99.90
40556;DHT22;26250;45.422;11.100;2024-03-25T07:52:17;13.00;99.90
40556;DHT22;26250;45.422;11.100;2024-03-25T07:54:43;12.60;99.90
40556;DHT22;26250;45.422;11.100;2024-03-25T07:57:09;12.80;99.90
40556;DHT22;26250;45.422;11.100;2024-03-25T07:59:35;12.70;99.90
40556;DHT22;26250;45.422;11.100;2024-03-25T08:02:02;12.70;99.90
40556;DHT22;26250;45.422;11.100;2024-03-25T08:04:28;12.80;99.90
40556;DHT22;26250;45.422;11.100;2024-03-25T08:06:55;12.40;99.90
40556;DHT22;26250;45.422;11.100;2024-03-25T08:09:21;12.40;99.90
40556;DHT22;26250;45.422;11.100;2024-03-25T08:11:47;12.40;99.90
40556;DHT22;26250;45.422;11.100;2024-03-25T08:14:14;12.20;99.90
40556;DHT22;26250;45.422;11.100;2024-03-25T08:16:41;12.20;99.90
40556;DHT22;26250;45.422;11.100;2024-03-25T08:19:08;11.60;97.20
40556;DHT22;26250;45.422;11.100;2024-03-25T08:21:34;11.70;95.90
40556;DHT22;26250;45.422;11.100;2024-03-25T08:24:03;11.60;95.50
40556;DHT22;26250;45.422;11.100;2024-03-25T08:26:29;11.70;94.40
40556;DHT22;26250;45.422;11.100;2024-03-25T08:28:56;11.80;93.80
40556;DHT22;26250;45.422;11.100;2024-03-25T08:31:22;11.80;97.00
40556;DHT22;26250;45.422;11.100;2024-03-25T08:33:48;11.90;99.90
40556;DHT22;26250;45.422;11.100;2024-03-25T08:36:14;11.70;94.90
40556;DHT22;26250;45.422;11.100;2024-03-25T08:38:40;11.80;98.20
40556;DHT22;26250;45.422;11.100;2024-03-25T08:41:07;11.90;94.40
40556;DHT22;26250;45.422;11.100;2024-03-25T08:43:33;11.90;99.70
40556;DHT22;26250;45.422;11.100;2024-03-25T08:45:59;12.10;98.90
40556;DHT22;26250;45.422;11.100;2024-03-25T08:48:25;12.00;95.70
40556;DHT22;26250;45.422;11.100;2024-03-25T08:50:51;12.10;98.00
40556;DHT22;26250;45.422;11.100;2024-03-25T08:53:18;12.20;99.90
40556;DHT22;26250;45.422;11.100;2024-03-25T08:55:45;12.00;96.40
40556;DHT22;26250;45.422;11.100;2024-03-25T08:58:15;11.80;94.50
40556;DHT22;26250;45.422;11.100;2024-03-25T09:00:42;12.00;95.70
40556;DHT22;26250;45.422;11.100;2024-03-25T09:03:09;12.30;97.60
40556;DHT22;26250;45.422;11.100;2024-03-25T09:05:37;12.10;95.40
40556;DHT22;26250;45.422;11.100;2024-03-25T09:08:09;12.40;99.40
40556;DHT22;26250;45.422;11.100;2024-03-25T09:10:37;12.30;95.60
40556;DHT22;26250;45.422;11.100;2024-03-25T09:13:23;12.20;94.70
40556;DHT22;26250;45.422;11.100;2024-03-25T09:15:52;12.00;94.10
40556;DHT22;26250;45.422;11.100;2024-03-25T09:18:20;12.20;93.90
40556;DHT22;26250;45.422;11.100;2024-03-25T09:20:46;12.20;93.00
40556;DHT22;26250;45.422;11.100;2024-03-25T09:23:12;12.30;94.70
40556;DHT22;26250;45.422;11.100;2024-03-25T09:25:39;12.50;96.60
40556;DHT22;26250;45.422;11.100;2024-03-25T09:28:05;12.50;94.50
40556;DHT22;26250;45.422;11.100;2024-03-25T09:30:32;12.70;95.60
40556;DHT22;26250;45.422;11.100;2024-03-25T09:32:58;12.80;91.70
40556;DHT22;26250;45.422;11.100;2024-03-25T09:35:25;12.70;89.40
40556;DHT22;26250;45.422;11.100;2024-03-25T09:37:51;12.60;89.70
40556;DHT22;26250;45.422;11.100;2024-03-25T09:40:17;12.60;90.20
40556;DHT22;26250;45.422;11.100;2024-03-25T09:42:48;12.60;90.30
40556;DHT22;26250;45.422;11.100;2024-03-25T09:45:18;12.70;90.70
40556;DHT22;26250;45.422;11.100;2024-03-25T09:47:48;12.70;90.10
40556;DHT22;26250;45.422;11.100;2024-03-25T09:50:14;13.00;90.90
40556;DHT22;26250;45.422;11.100;2024-03-25T09:52:48;13.30;90.00
40556;DHT22;26250;45.422;11.100;2024-03-25T09:55:15;13.40;87.70
40556;DHT22;26250;45.422;11.100;2024-03-25T09:57:45;13.60;90.10
40556;DHT22;26250;45.422;11.100;2024-03-25T10:00:12;13.60;87.10
40556;DHT22;26250;45.422;11.100;2024-03-25T10:02:44;13.70;88.70
40556;DHT22;26250;45.422;11.100;2024-03-25T10:05:10;13.70;91.90
40556;DHT22;26250;45.422;11.100;2024-03-25T10:07:36;13.70;85.20
40556;DHT22;26250;45.422;11.100;2024-03-25T10:10:06;13.90;89.30
40556;DHT22;26250;45.422;11.100;2024-03-25T10:12:33;13.80;84.60
40556;DHT22;26250;45.422;11.100;2024-03-25T10:14:59;13.90;84.40
40556;DHT22;26250;45.422;11.100;2024-03-25T10:17:25;13.90;83.90
40556;DHT22;26250;45.422;11.100;2024-03-25T10:19:54;14.10;83.80
40556;DHT22;26250;45.422;11.100;2024-03-25T10:22:20;14.10;82.70
40556;DHT22;26250;45.422;11.100;2024-03-25T10:24:47;14.00;79.20
40556;DHT22;26250;45.422;11.100;2024-03-25T10:27:19;13.90;80.40
40556;DHT22;26250;45.422;11.100;2024-03-25T10:29:54;13.90;81.00
40556;DHT22;26250;45.422;11.100;2024-03-25T10:32:23;14.10;79.10
40556;DHT22;26250;45.422;11.100;2024-03-25T10:34:59;14.00;79.20
40556;DHT22;26250;45.422;11.100;2024-03-25T10:37:27;14.20;77.80
40556;DHT22;26250;45.422;11.100;2024-03-25T10:39:58;14.30;78.60
40556;DHT22;26250;45.422;11.100;2024-03-25T10:42:26;14.20;77.60
40556;DHT22;26250;45.422;11.100;2024-03-25T10:44:52;14.30;75.90
40556;DHT22;26250;45.422;11.100;2024-03-25T10:47:25;14.50;74.00
40556;DHT22;26250;45.422;11.100;2024-03-25T10:49:57;14.50;75.70
40556;DHT22;26250;45.422;11.100;2024-03-25T10:52:24;14.40;75.00
40556;DHT22;26250;45.422;11.100;2024-03-25T10:54:54;14.50;75.20
40556;DHT22;26250;45.422;11.100;2024-03-25T10:57:26;14.60;72.50
40556;DHT22;26250;45.422;11.100;2024-03-25T10:59:55;14.60;72.30
40556;DHT22;26250;45.422;11.100;2024-03-25T11:02:23;14.50;66.90
40556;DHT22;26250;45.422;11.100;2024-03-25T11:04:50;14.50;67.60
40556;DHT22;26250;45.422;11.100;2024-03-25T11:07:17;14.70;70.40
40556;DHT22;26250;45.422;11.100;2024-03-25T11:09:43;14.80;70.60
40556;DHT22;26250;45.422;11.100;2024-03-25T11:12:11;14.60;70.90
40556;DHT22;26250;45.422;11.100;2024-03-25T11:14:38;14.60;70.90
40556;DHT22;26250;45.422;11.100;2024-03-25T11:17:15;14.60;71.90
40556;DHT22;26250;45.422;11.100;2024-03-25T11:19:42;14.80;69.70
40556;DHT22;26250;45.422;11.100;2024-03-25T11:22:09;15.00;68.80
40556;DHT22;26250;45.422;11.100;2024-03-25T11:24:36;15.00;69.50
40556;DHT22;26250;45.422;11.100;2024-03-25T11:27:08;15.10;69.50
40556;DHT22;26250;45.422;11.100;2024-03-25T11:29:35;15.20;68.80
40556;DHT22;26250;45.422;11.100;2024-03-25T11:32:05;15.30;68.90
40556;DHT22;26250;45.422;11.100;2024-03-25T11:34:32;15.30;70.00
40556;DHT22;26250;45.422;11.100;2024-03-25T11:36:58;15.40;69.00
40556;DHT22;26250;45.422;11.100;2024-03-25T11:39:24;15.40;66.50
40556;DHT22;26250;45.422;11.100;2024-03-25T11:41:54;15.40;64.50
40556;DHT22;26250;45.422;11.100;2024-03-25T11:44:21;15.40;65.20
40556;DHT22;26250;45.422;11.100;2024-03-25T11:46:51;15.30;65.60
40556;DHT22;26250;45.422;11.100;2024-03-25T11:49:21;15.50;66.70
40556;DHT22;26250;45.422;11.100;2024-03-25T11:51:47;15.60;92.40
40556;DHT22;26250;45.422;11.100;2024-03-25T11:54:14;15.40;84.10
40556;DHT22;26250;45.422;11.100;2024-03-25T11:56:41;15.30;89.80
40556;DHT22;26250;45.422;11.100;2024-03-25T11:59:09;15.30;98.20
40556;DHT22;26250;45.422;11.100;2024-03-25T12:01:37;14.90;76.60
40556;DHT22;26250;45.422;11.100;2024-03-25T12:04:11;15.10;99.90
40556;DHT22;26250;45.422;11.100;2024-03-25T12:06:38;15.20;78.60
40556;DHT22;26250;45.422;11.100;2024-03-25T12:09:04;15.40;70.60
40556;DHT22;26250;45.422;11.100;2024-03-25T12:11:48;15.40;77.60
40556;DHT22;26250;45.422;11.100;2024-03-25T12:14:15;15.40;73.20
40556;DHT22;26250;45.422;11.100;2024-03-25T12:16:42;15.40;71.80
40556;DHT22;26250;45.422;11.100;2024-03-25T12:19:08;15.60;68.50
40556;DHT22;26250;45.422;11.100;2024-03-25T12:21:34;15.70;82.90
40556;DHT22;26250;45.422;11.100;2024-03-25T12:24:00;15.50;69.10
40556;DHT22;26250;45.422;11.100;2024-03-25T12:26:27;15.80;98.90
40556;DHT22;26250;45.422;11.100;2024-03-25T12:28:53;15.70;76.30
40556;DHT22;26250;45.422;11.100;2024-03-25T12:31:19;15.60;99.90
40556;DHT22;26250;45.422;11.100;2024-03-25T12:33:49;15.50;99.60
40556;DHT22;26250;45.422;11.100;2024-03-25T12:36:15;15.70;71.20
40556;DHT22;26250;45.422;11.100;2024-03-25T12:38:41;15.90;74.30
40556;DHT22;26250;45.422;11.100;2024-03-25T12:41:09;15.80;99.90
40556;DHT22;26250;45.422;11.100;2024-03-25T12:43:41;15.90;95.90
40556;DHT22;26250;45.422;11.100;2024-03-25T12:46:07;15.90;99.90
40556;DHT22;26250;45.422;11.100;2024-03-25T12:48:36;15.90;91.60
40556;DHT22;26250;45.422;11.100;2024-03-25T12:51:02;15.80;72.80
40556;DHT22;26250;45.422;11.100;2024-03-25T12:53:29;15.80;73.20
40556;DHT22;26250;45.422;11.100;2024-03-25T12:55:55;15.90;70.90
40556;DHT22;26250;45.422;11.100;2024-03-25T12:58:21;16.00;73.00
40556;DHT22;26250;45.422;11.100;2024-03-25T13:00:47;15.90;75.00
40556;DHT22;26250;45.422;11.100;2024-03-25T13:03:14;16.00;99.90
40556;DHT22;26250;45.422;11.100;2024-03-25T13:05:43;15.70;94.40
40556;DHT22;26250;45.422;11.100;2024-03-25T13:08:09;15.80;99.90
40556;DHT22;26250;45.422;11.100;2024-03-25T13:10:35;15.70;99.90
40556;DHT22;26250;45.422;11.100;2024-03-25T13:13:04;15.90;99.90
40556;DHT22;26250;45.422;11.100;2024-03-25T13:15:31;15.80;92.40
40556;DHT22;26250;45.422;11.100;2024-03-25T13:17:58;16.00;92.70
40556;DHT22;26250;45.422;11.100;2024-03-25T13:20:24;16.20;74.10
40556;DHT22;26250;45.422;11.100;2024-03-25T13:22:53;16.20;69.80
40556;DHT22;26250;45.422;11.100;2024-03-25T13:25:23;16.40;77.60
40556;DHT22;26250;45.422;11.100;2024-03-25T13:27:49;16.40;97.20
40556;DHT22;26250;45.422;11.100;2024-03-25T13:30:15;16.30;93.60
40556;DHT22;26250;45.422;11.100;2024-03-25T13:32:41;16.40;97.80
40556;DHT22;26250;45.422;11.100;2024-03-25T13:35:07;16.20;69.90
40556;DHT22;26250;45.422;11.100;2024-03-25T13:37:34;16.40;68.10
40556;DHT22;26250;45.422;11.100;2024-03-25T13:40:00;16.40;65.90
40556;DHT22;26250;45.422;11.100;2024-03-25T13:42:26;16.30;66.70
40556;DHT22;26250;45.422;11.100;2024-03-25T13:44:52;16.30;90.00
40556;DHT22;26250;45.422;11.100;2024-03-25T13:47:19;16.10;83.20
40556;DHT22;26250;45.422;11.100;2024-03-25T13:49:45;16.50;63.50
40556;DHT22;26250;45.422;11.100;2024-03-25T13:52:12;16.50;61.60
40556;DHT22;26250;45.422;11.100;2024-03-25T13:54:38;16.60;62.30
40556;DHT22;26250;45.422;11.100;2024-03-25T13:57:09;16.60;62.00
40556;DHT22;26250;45.422;11.100;2024-03-25T13:59:36;16.30;61.60
40556;DHT22;26250;45.422;11.100;2024-03-25T14:02:02;16.30;63.20
40556;DHT22;26250;45.422;11.100;2024-03-25T14:04:28;16.30;64.00
40556;DHT22;26250;45.422;11.100;2024-03-25T14:06:54;16.60;65.20
40556;DHT22;26250;45.422;11.100;2024-03-25T14:09:24;16.70;69.60
40556;DHT22;26250;45.422;11.100;2024-03-25T14:11:51;16.70;65.30
40556;DHT22;26250;45.422;11.100;2024-03-25T14:14:17;16.80;66.10
40556;DHT22;26250;45.422;11.100;2024-03-25T14:16:43;16.80;64.30
40556;DHT22;26250;45.422;11.100;2024-03-25T14:19:10;16.40;62.60
40556;DHT22;26250;45.422;11.100;2024-03-25T14:21:36;16.40;68.20
40556;DHT22;26250;45.422;11.100;2024-03-25T14:24:04;16.50;63.30
40556;DHT22;26250;45.422;11.100;2024-03-25T14:26:31;16.20;64.80
40556;DHT22;26250;45.422;11.100;2024-03-25T14:28:57;16.10;60.90
40556;DHT22;26250;45.422;11.100;2024-03-25T14:31:26;16.00;61.80
40556;DHT22;26250;45.422;11.100;2024-03-25T14:33:51;16.30;66.10
40556;DHT22;26250;45.422;11.100;2024-03-25T14:36:18;16.50;63.40
40556;DHT22;26250;45.422;11.100;2024-03-25T14:38:44;16.50;63.60
40556;DHT22;26250;45.422;11.100;2024-03-25T14:41:19;16.60;65.00
40556;DHT22;26250;45.422;11.100;2024-03-25T14:43:45;16.60;61.90
40556;DHT22;26250;45.422;11.100;2024-03-25T14:46:11;16.50;61.50
40556;DHT22;26250;45.422;11.100;2024-03-25T14:48:37;16.40;65.30
40556;DHT22;26250;45.422;11.100;2024-03-25T14:51:03;16.30;66.50
40556;DHT22;26250;45.422;11.100;2024-03-25T14:53:30;16.20;65.20
40556;DHT22;26250;45.422;11.100;2024-03-25T14:55:56;16.10;65.60
40556;DHT22;26250;45.422;11.100;2024-03-25T14:58:22;16.00;64.30
40556;DHT22;26250;45.422;11.100;2024-03-25T15:00:48;15.90;68.60
40556;DHT22;26250;45.422;11.100;2024-03-25T15:03:14;16.00;64.90
40556;DHT22;26250;45.422;11.100;2024-03-25T15:05:40;16.10;66.10
40556;DHT22;26250;45.422;11.100;2024-03-25T15:08:07;16.30;65.30
40556;DHT22;26250;45.422;11.100;2024-03-25T15:10:36;16.20;64.10
40556;DHT22;26250;45.422;11.100;2024-03-25T15:13:02;16.20;64.60
40556;DHT22;26250;45.422;11.100;2024-03-25T15:15:28;16.20;63.80
40556;DHT22;26250;45.422;11.100;2024-03-25T15:17:59;16.30;64.10
40556;DHT22;26250;45.422;11.100;2024-03-25T15:20:25;16.30;66.40
40556;DHT22;26250;45.422;11.100;2024-03-25T15:22:52;16.40;69.70